createdAt,value
2018-07-27T00:02:29.581Z,96222.00
2018-07-27T00:05:03.130Z,96219.00
2018-07-27T00:10:59.082Z,96222.00
2018-07-27T00:20:01.641Z,96229.00
2018-07-27T00:22:31.765Z,96223.00
2018-07-27T00:25:01.932Z,96212.00
2018-07-27T00:27:33.518Z,96219.00
2018-07-27T00:30:28.258Z,96214.00
2018-07-27T00:33:00.644Z,96201.00
2018-07-27T00:38:38.395Z,96199.00
2018-07-27T00:44:33.346Z,96203.00
2018-07-27T00:50:35.570Z,96198.00
2018-07-27T00:59:45.322Z,96192.00
2018-07-27T01:05:24.211Z,96196.00
2018-07-27T01:09:34.470Z,96186.00
2018-07-27T01:15:12.257Z,96180.00
2018-07-27T01:17:42.392Z,96180.00
2018-07-27T01:20:12.548Z,96177.00
2018-07-27T01:22:43.496Z,96171.00
2018-07-27T01:25:29.098Z,96181.00
2018-07-27T01:34:14.867Z,96175.00
2018-07-27T01:36:46.499Z,96179.00
2018-07-27T01:42:24.240Z,96181.00
2018-07-27T01:44:57.950Z,96169.00
2018-07-27T01:49:08.471Z,96172.00
2018-07-27T01:51:39.157Z,96172.00
2018-07-27T01:54:17.118Z,96170.00
2018-07-27T02:00:07.823Z,96166.00
2018-07-27T02:02:38.663Z,96163.00
2018-07-27T02:05:08.881Z,96164.00
2018-07-27T02:07:39.072Z,96162.00
2018-07-27T02:10:09.252Z,96161.00
2018-07-27T02:12:39.745Z,96153.00
2018-07-27T02:15:15.920Z,96151.00
2018-07-27T02:17:46.044Z,96157.00
2018-07-27T02:20:16.163Z,96157.00
2018-07-27T02:22:46.381Z,96159.00
2018-07-27T02:25:24.985Z,96155.00
2018-07-27T02:31:28.005Z,96162.00
2018-07-27T02:44:01.740Z,96157.00
2018-07-27T02:56:07.876Z,96152.00
2018-07-27T02:58:38.949Z,96157.00
2018-07-27T03:01:10.216Z,96158.00
2018-07-27T03:03:41.028Z,96164.00
2018-07-27T03:07:32.248Z,96160.00
2018-07-27T03:19:27.758Z,96160.00
2018-07-27T03:21:57.876Z,96170.00
2018-07-27T03:27:46.664Z,96162.00
2018-07-27T03:30:17.148Z,96158.00
2018-07-27T03:32:48.095Z,96164.00
2018-07-27T03:38:36.845Z,96155.00
2018-07-27T03:41:06.976Z,96164.00
2018-07-27T03:44:02.594Z,96160.00
2018-07-27T03:46:32.840Z,96165.00
2018-07-27T03:49:02.936Z,96156.00
2018-07-27T03:51:33.076Z,96168.00
2018-07-27T03:54:03.233Z,96168.00
2018-07-27T03:56:33.348Z,96168.00
2018-07-27T03:59:03.570Z,96168.00
2018-07-27T04:01:33.672Z,96176.00
2018-07-27T04:04:03.834Z,96169.00
2018-07-27T04:06:33.941Z,96168.00
2018-07-27T04:09:06.112Z,96167.00
2018-07-27T04:11:36.230Z,96164.00
2018-07-27T04:14:06.413Z,96168.00
2018-07-27T04:16:36.535Z,96168.00
2018-07-27T04:19:06.796Z,96170.00
2018-07-27T04:21:36.912Z,96180.00
2018-07-27T04:24:07.094Z,96174.00
2018-07-27T04:26:37.192Z,96178.00
2018-07-27T04:29:07.288Z,96174.00
2018-07-27T04:31:37.397Z,96176.00
2018-07-27T04:34:07.547Z,96179.00
2018-07-27T04:36:37.722Z,96181.00
2018-07-27T04:39:10.244Z,96183.00
2018-07-27T04:41:40.397Z,96182.00
2018-07-27T04:44:10.516Z,96184.00
2018-07-27T04:46:40.675Z,96176.00
2018-07-27T04:49:10.821Z,96184.00
2018-07-27T04:51:41.024Z,96190.00
2018-07-27T04:54:11.162Z,96182.00
2018-07-27T04:56:41.368Z,96181.00
2018-07-27T04:59:11.437Z,96182.00
2018-07-27T05:01:41.540Z,96175.00
2018-07-27T05:04:11.645Z,96193.00
2018-07-27T05:06:41.751Z,96190.00
2018-07-27T05:09:16.976Z,96201.00
2018-07-27T05:11:47.118Z,96191.00
2018-07-27T05:14:17.168Z,96191.00
2018-07-27T05:16:47.350Z,96188.00
2018-07-27T05:19:17.537Z,96185.00
2018-07-27T05:21:47.643Z,96195.00
2018-07-27T05:24:18.771Z,96194.00
2018-07-27T05:26:48.936Z,96189.00
2018-07-27T05:29:19.026Z,96201.00
2018-07-27T05:31:49.272Z,96192.00
2018-07-27T05:34:19.404Z,96199.00
2018-07-27T05:36:49.492Z,96200.00
2018-07-27T05:39:19.605Z,96192.00
2018-07-27T05:41:49.749Z,96195.00
2018-07-27T05:44:19.844Z,96200.00
2018-07-27T05:46:49.988Z,96201.00
2018-07-27T05:49:20.056Z,96200.00
2018-07-27T05:51:50.212Z,96191.00
2018-07-27T05:54:20.316Z,96199.00
2018-07-27T05:56:50.471Z,96205.00
2018-07-27T05:59:20.645Z,96199.00
2018-07-27T06:04:27.872Z,96206.00
2018-07-27T06:06:57.989Z,96219.00
2018-07-27T06:09:28.080Z,96208.00
2018-07-27T06:11:58.328Z,96208.00
2018-07-27T06:14:28.430Z,96213.00
2018-07-27T06:16:58.637Z,96212.00
2018-07-27T06:19:28.742Z,96214.00
2018-07-27T06:21:58.836Z,96205.00
2018-07-27T06:24:45.777Z,96204.00
2018-07-27T06:27:16.573Z,96210.00
2018-07-27T06:29:47.408Z,96209.00
2018-07-27T06:32:18.140Z,96212.00
2018-07-27T06:34:48.267Z,96213.00
2018-07-27T06:37:18.545Z,96216.00
2018-07-27T06:39:48.646Z,96213.00
2018-07-27T06:42:18.785Z,96212.00
2018-07-27T06:44:48.871Z,96210.00
2018-07-27T06:47:18.996Z,96214.00
2018-07-27T06:49:49.085Z,96217.00
2018-07-27T06:52:19.212Z,96215.00
2018-07-27T06:54:49.268Z,96207.00
2018-07-27T06:57:19.378Z,96217.00
2018-07-27T06:59:49.504Z,96213.00
2018-07-27T07:02:19.613Z,96219.00
2018-07-27T07:04:49.760Z,96212.00
2018-07-27T07:07:19.897Z,96219.00
2018-07-27T07:09:49.992Z,96219.00
2018-07-27T07:12:20.300Z,96220.00
2018-07-27T07:14:50.422Z,96218.00
2018-07-27T07:17:20.504Z,96212.00
2018-07-27T07:19:50.741Z,96217.00
2018-07-27T07:22:20.936Z,96218.00
2018-07-27T07:24:51.373Z,96220.00
2018-07-27T07:27:21.594Z,96233.00
2018-07-27T07:29:51.514Z,96216.00
2018-07-27T07:32:21.541Z,96219.00
2018-07-27T07:34:51.695Z,96216.00
2018-07-27T07:37:22.029Z,96214.00
2018-07-27T07:39:52.363Z,96221.00
2018-07-27T07:42:22.512Z,96216.00
2018-07-27T07:44:52.609Z,96211.00
2018-07-27T07:47:22.943Z,96217.00
2018-07-27T07:49:53.084Z,96218.00
2018-07-27T07:52:23.278Z,96222.00
2018-07-27T07:54:53.452Z,96215.00
2018-07-27T07:57:23.691Z,96217.00
2018-07-27T07:59:53.760Z,96211.00
2018-07-27T08:02:23.992Z,96214.00
2018-07-27T08:04:54.112Z,96208.00
2018-07-27T08:07:24.228Z,96212.00
2018-07-27T08:09:54.628Z,96209.00
2018-07-27T08:12:25.006Z,96202.00
2018-07-27T08:14:55.164Z,96203.00
2018-07-27T08:17:25.386Z,96198.00
2018-07-27T08:19:55.472Z,96203.00
2018-07-27T08:22:25.592Z,96192.00
2018-07-27T08:24:56.052Z,96196.00
2018-07-27T08:27:26.176Z,96199.00
2018-07-27T08:29:56.449Z,96200.00
2018-07-27T08:32:26.546Z,96193.00
2018-07-27T08:34:56.708Z,96187.00
2018-07-27T08:37:26.920Z,96193.00
2018-07-27T08:39:57.134Z,96190.00
2018-07-27T08:42:27.561Z,96193.00
2018-07-27T08:44:57.384Z,96195.00
2018-07-27T08:47:27.448Z,96195.00
2018-07-27T08:49:57.779Z,96187.00
2018-07-27T08:52:27.958Z,96186.00
2018-07-27T08:54:58.060Z,96185.00
2018-07-27T08:57:28.182Z,96193.00
2018-07-27T08:59:58.259Z,96196.00
2018-07-27T09:02:28.416Z,96183.00
2018-07-27T09:04:58.588Z,96194.00
2018-07-27T09:07:28.668Z,96192.00
2018-07-27T09:09:58.884Z,96201.00
2018-07-27T09:12:28.963Z,96199.00
2018-07-27T09:14:59.252Z,96194.00
2018-07-27T09:17:29.618Z,96201.00
2018-07-27T09:20:00.636Z,96198.00
2018-07-27T09:22:30.964Z,96193.00
2018-07-27T09:25:01.460Z,96198.00
2018-07-27T09:27:31.394Z,96193.00
2018-07-27T09:30:01.503Z,96183.00
2018-07-27T09:32:31.604Z,96189.00
2018-07-27T09:35:01.767Z,96194.00
2018-07-27T09:37:31.876Z,96184.00
2018-07-27T09:40:02.013Z,96181.00
2018-07-27T09:42:32.104Z,96176.00
2018-07-27T09:45:02.399Z,96178.00
2018-07-27T09:47:32.546Z,96169.00
2018-07-27T09:50:02.688Z,96169.00
2018-07-27T09:52:32.763Z,96167.00
2018-07-27T09:55:02.987Z,96160.00
2018-07-27T09:57:33.334Z,96161.00
2018-07-27T10:00:05.054Z,96162.00
2018-07-27T10:02:35.158Z,96156.00
2018-07-27T10:05:05.725Z,96167.00
2018-07-27T10:07:36.172Z,96150.00
2018-07-27T10:10:06.848Z,96150.00
2018-07-27T10:12:37.344Z,96148.00
2018-07-27T10:15:08.441Z,96146.00
2018-07-27T10:17:38.611Z,96137.00
2018-07-27T10:20:09.457Z,96139.00
2018-07-27T10:22:39.958Z,96138.00
2018-07-27T10:25:10.418Z,96132.00
2018-07-27T10:27:40.550Z,96131.00
2018-07-27T10:30:10.640Z,96130.00
2018-07-27T10:32:40.852Z,96134.00
2018-07-27T10:35:11.088Z,96135.00
2018-07-27T10:37:41.400Z,96133.00
2018-07-27T10:40:11.816Z,96133.00
2018-07-27T10:42:41.916Z,96135.00
2018-07-27T10:45:12.045Z,96134.00
2018-07-27T10:47:42.286Z,96126.00
2018-07-27T10:50:12.452Z,96138.00
2018-07-27T10:52:42.588Z,96129.00
2018-07-27T10:55:12.705Z,96142.00
2018-07-27T10:57:42.820Z,96131.00
2018-07-27T11:00:14.787Z,96127.00
2018-07-27T11:02:44.898Z,96118.00
2018-07-27T11:05:14.984Z,96115.00
2018-07-27T11:07:45.140Z,96123.00
2018-07-27T11:10:15.244Z,96115.00
2018-07-27T11:12:45.351Z,96124.00
2018-07-27T11:15:15.578Z,96119.00
2018-07-27T11:17:45.723Z,96118.00
2018-07-27T11:20:15.841Z,96115.00
2018-07-27T11:22:45.923Z,96114.00
2018-07-27T11:25:16.021Z,96109.00
2018-07-27T11:27:46.096Z,96105.00
2018-07-27T11:30:16.176Z,96104.00
2018-07-27T11:32:46.393Z,96098.00
2018-07-27T11:35:16.476Z,96109.00
2018-07-27T11:37:46.588Z,96099.00
2018-07-27T11:40:16.744Z,96105.00
2018-07-27T11:42:46.860Z,96099.00
2018-07-27T11:45:16.978Z,96089.00
2018-07-27T11:47:47.178Z,96088.00
2018-07-27T11:50:17.444Z,96090.00
2018-07-27T11:52:47.808Z,96109.00
2018-07-27T11:55:18.293Z,96124.00
2018-07-27T11:57:48.776Z,96135.00
2018-07-27T12:00:18.608Z,96148.00
2018-07-27T12:02:48.580Z,96143.00
2018-07-27T12:05:18.648Z,96143.00
2018-07-27T12:07:48.737Z,96130.00
2018-07-27T12:10:18.880Z,96132.00
2018-07-27T12:12:48.952Z,96136.00
2018-07-27T12:15:19.253Z,96136.00
2018-07-27T12:17:49.108Z,96130.00
2018-07-27T12:20:19.209Z,96130.00
2018-07-27T12:22:49.280Z,96131.00
2018-07-27T12:25:19.408Z,96132.00
2018-07-27T12:27:49.468Z,96122.00
2018-07-27T12:30:19.550Z,96129.00
2018-07-27T12:32:49.620Z,96125.00
2018-07-27T12:35:19.820Z,96135.00
2018-07-27T12:37:49.924Z,96122.00
2018-07-27T12:40:20.435Z,96121.00
2018-07-27T12:42:50.590Z,96112.00
2018-07-27T12:45:21.008Z,96116.00
2018-07-27T12:47:52.124Z,96113.00
2018-07-27T12:50:22.812Z,96110.00
2018-07-27T12:52:53.287Z,96108.00
2018-07-27T12:55:23.895Z,96109.00
2018-07-27T12:57:54.526Z,96107.00
2018-07-27T13:00:24.960Z,96108.00
2018-07-27T13:02:55.320Z,96119.00
2018-07-27T13:05:25.436Z,96110.00
2018-07-27T13:07:56.321Z,96097.00
2018-07-27T13:10:27.063Z,96100.00
2018-07-27T13:12:57.132Z,96104.00
2018-07-27T13:15:27.845Z,96098.00
2018-07-27T13:17:57.996Z,96095.00
2018-07-27T13:20:54.101Z,96094.00
2018-07-27T13:23:25.412Z,96085.00
2018-07-27T13:28:46.224Z,96084.00
2018-07-27T13:31:16.327Z,96086.00
2018-07-27T13:34:51.108Z,96077.00
2018-07-27T13:37:22.648Z,96075.00
2018-07-27T13:39:56.115Z,96072.00
2018-07-27T13:42:27.821Z,96071.00
2018-07-27T13:44:59.520Z,96067.00
2018-07-27T13:47:29.827Z,96066.00
2018-07-27T13:50:00.655Z,96071.00
2018-07-27T13:52:31.113Z,96062.00
2018-07-27T13:55:01.193Z,96065.00
2018-07-27T13:57:31.981Z,96067.00
2018-07-27T14:00:02.071Z,96058.00
2018-07-27T14:02:32.253Z,96055.00
2018-07-27T14:05:02.358Z,96049.00
2018-07-27T14:07:33.281Z,96048.00
2018-07-27T14:10:03.419Z,96041.00
2018-07-27T14:12:33.587Z,96036.00
2018-07-27T14:15:03.713Z,96033.00
2018-07-27T14:17:33.913Z,96032.00
2018-07-27T14:20:04.068Z,96033.00
2018-07-27T14:22:34.182Z,96034.00
2018-07-27T14:25:04.379Z,96038.00
2018-07-27T14:27:34.492Z,96039.00
2018-07-27T14:30:05.048Z,96045.00
2018-07-27T14:32:35.183Z,96042.00
2018-07-27T14:35:05.354Z,96055.00
2018-07-27T14:37:35.445Z,96045.00
2018-07-27T14:40:05.986Z,96050.00
2018-07-27T14:42:36.564Z,96054.00
2018-07-27T14:45:06.902Z,96059.00
2018-07-27T14:47:36.988Z,96049.00
2018-07-27T14:50:07.505Z,96051.00
2018-07-27T14:52:37.464Z,96047.00
2018-07-27T14:55:07.612Z,96049.00
2018-07-27T14:57:38.125Z,96052.00
2018-07-27T15:00:08.792Z,96048.00
2018-07-27T15:02:39.170Z,96039.00
2018-07-27T15:05:09.650Z,96046.00
2018-07-27T15:07:39.930Z,96036.00
2018-07-27T15:10:10.582Z,96039.00
2018-07-27T15:12:40.800Z,96041.00
2018-07-27T15:15:11.085Z,96037.00
2018-07-27T15:17:41.512Z,96031.00
2018-07-27T15:20:11.745Z,96030.00
2018-07-27T15:22:41.976Z,96029.00
2018-07-27T15:25:12.343Z,96035.00
2018-07-27T15:27:42.564Z,96024.00
2018-07-27T15:30:12.732Z,96016.00
2018-07-27T15:32:42.887Z,96013.00
2018-07-27T15:35:13.152Z,96013.00
2018-07-27T15:37:43.494Z,96007.00
2018-07-27T15:40:13.622Z,96012.00
2018-07-27T15:42:43.867Z,96015.00
2018-07-27T15:45:14.040Z,96012.00
2018-07-27T15:47:44.300Z,96007.00
2018-07-27T15:50:14.480Z,96010.00
2018-07-27T15:52:44.606Z,96008.00
2018-07-27T15:55:14.792Z,96005.00
2018-07-27T15:57:45.383Z,95996.00
2018-07-27T16:00:15.447Z,96010.00
2018-07-27T16:02:46.200Z,96005.00
2018-07-27T16:05:16.396Z,96011.00
2018-07-27T16:07:46.508Z,96003.00
2018-07-27T16:10:16.741Z,95997.00
2018-07-27T16:12:46.812Z,95998.00
2018-07-27T16:15:16.884Z,96003.00
2018-07-27T16:17:46.956Z,95999.00
2018-07-27T16:20:17.045Z,95996.00
2018-07-27T16:22:46.838Z,96006.00
2018-07-27T16:25:16.864Z,96005.00
2018-07-27T16:27:47.496Z,96016.00
2018-07-27T16:30:17.687Z,96014.00
2018-07-27T16:32:47.868Z,96008.00
2018-07-27T16:35:18.054Z,96004.00
2018-07-27T16:37:48.316Z,96015.00
2018-07-27T16:40:18.539Z,96018.00
2018-07-27T16:42:48.653Z,96023.00
2018-07-27T16:45:18.758Z,96024.00
2018-07-27T16:47:48.934Z,96028.00
2018-07-27T16:50:19.165Z,96028.00
2018-07-27T16:52:49.401Z,96017.00
2018-07-27T16:55:19.548Z,96017.00
2018-07-27T16:57:49.620Z,96014.00
2018-07-27T17:00:19.765Z,96012.00
2018-07-27T17:02:49.832Z,96008.00
2018-07-27T17:05:19.999Z,96023.00
2018-07-27T17:07:49.819Z,96014.00
2018-07-27T17:10:19.824Z,96002.00
2018-07-27T17:12:50.040Z,96018.00
2018-07-27T17:15:20.348Z,96017.00
2018-07-27T17:17:50.494Z,96015.00
2018-07-27T17:20:20.560Z,96021.00
2018-07-27T17:22:50.651Z,96024.00
2018-07-27T17:25:20.833Z,96025.00
2018-07-27T17:27:50.812Z,96036.00
2018-07-27T17:30:21.085Z,96036.00
2018-07-27T17:32:50.957Z,96044.00
2018-07-27T17:35:20.988Z,96052.00
2018-07-27T17:37:51.070Z,96055.00
2018-07-27T17:40:21.248Z,96056.00
2018-07-27T17:42:51.456Z,96058.00
2018-07-27T17:45:21.504Z,96061.00
2018-07-27T17:47:51.643Z,96056.00
2018-07-27T17:50:21.731Z,96061.00
2018-07-27T17:52:52.180Z,96059.00
2018-07-27T17:55:22.555Z,96060.00
2018-07-27T17:57:52.980Z,96064.00
2018-07-27T18:00:23.179Z,96067.00
2018-07-27T18:02:53.332Z,96070.00
2018-07-27T18:05:23.772Z,96077.00
2018-07-27T18:07:54.030Z,96082.00
2018-07-27T18:10:23.952Z,96083.00
2018-07-27T18:12:54.044Z,96084.00
2018-07-27T18:15:24.256Z,96089.00
2018-07-27T18:17:54.445Z,96083.00
2018-07-27T18:20:24.648Z,96085.00
2018-07-27T18:22:54.868Z,96095.00
2018-07-27T18:25:24.965Z,96115.00
2018-07-27T18:27:55.034Z,96121.00
2018-07-27T18:30:25.196Z,96112.00
2018-07-27T18:32:55.272Z,96106.00
2018-07-27T18:35:25.521Z,96094.00
2018-07-27T18:37:55.703Z,96085.00
2018-07-27T18:40:25.824Z,96081.00
2018-07-27T18:42:55.889Z,96090.00
2018-07-27T18:45:25.992Z,96083.00
2018-07-27T18:47:56.076Z,96096.00
2018-07-27T18:50:26.176Z,96086.00
2018-07-27T18:52:56.303Z,96080.00
2018-07-27T18:55:26.424Z,96083.00
2018-07-27T18:57:56.544Z,96076.00
2018-07-27T19:00:26.623Z,96072.00
2018-07-27T19:02:56.720Z,96075.00
2018-07-27T19:05:26.832Z,96078.00
2018-07-27T19:07:56.909Z,96079.00
2018-07-27T19:10:27.004Z,96076.00
2018-07-27T19:12:57.127Z,96078.00
2018-07-27T19:15:27.251Z,96074.00
2018-07-27T19:17:57.024Z,96072.00
2018-07-27T19:20:27.047Z,96075.00
2018-07-27T19:22:57.132Z,96068.00
2018-07-27T19:25:27.259Z,96066.00
2018-07-27T19:27:57.316Z,96058.00
2018-07-27T19:30:27.418Z,96061.00
2018-07-27T19:32:57.578Z,96064.00
2018-07-27T19:35:27.646Z,96067.00
2018-07-27T19:37:57.844Z,96073.00
2018-07-27T19:40:27.928Z,96068.00
2018-07-27T19:42:58.052Z,96065.00
2018-07-27T19:45:28.160Z,96069.00
2018-07-27T19:47:58.323Z,96065.00
2018-07-27T19:50:28.464Z,96064.00
2018-07-27T19:52:58.556Z,96048.00
2018-07-27T19:55:28.660Z,96041.00
2018-07-27T19:57:58.740Z,96038.00
2018-07-27T20:00:28.903Z,96044.00
2018-07-27T20:02:59.020Z,96047.00
2018-07-27T20:05:29.100Z,96048.00
2018-07-27T20:07:59.285Z,96050.00
2018-07-27T20:10:29.375Z,96042.00
2018-07-27T20:12:59.466Z,96036.00
2018-07-27T20:15:29.557Z,96032.00
2018-07-27T20:17:59.644Z,96041.00
2018-07-27T20:20:29.713Z,96035.00
2018-07-27T20:22:59.920Z,96035.00
2018-07-27T20:25:30.095Z,96023.00
2018-07-27T20:28:00.200Z,96028.00
2018-07-27T20:30:30.288Z,96028.00
2018-07-27T20:33:00.376Z,96041.00
2018-07-27T20:35:30.448Z,96035.00
2018-07-27T20:38:00.632Z,96024.00
2018-07-27T20:40:30.832Z,96028.00
2018-07-27T20:43:00.960Z,96033.00
2018-07-27T20:45:31.048Z,96034.00
2018-07-27T20:48:01.200Z,96026.00
2018-07-27T20:50:31.288Z,96031.00
2018-07-27T20:53:01.388Z,96032.00
2018-07-27T20:55:31.470Z,96039.00
2018-07-27T20:58:01.542Z,96042.00
2018-07-27T21:00:31.636Z,96042.00
2018-07-27T21:03:01.792Z,96052.00
2018-07-27T21:05:31.879Z,96038.00
2018-07-27T21:08:01.985Z,96051.00
2018-07-27T21:10:32.152Z,96036.00
2018-07-27T21:13:02.268Z,96044.00
2018-07-27T21:15:32.561Z,96055.00
2018-07-27T21:18:02.805Z,96047.00
2018-07-27T21:20:33.072Z,96047.00
2018-07-27T21:23:03.517Z,96059.00
2018-07-27T21:25:33.611Z,96051.00
2018-07-27T21:28:03.994Z,96046.00
2018-07-27T21:30:34.627Z,96039.00
2018-07-27T21:33:04.733Z,96036.00
2018-07-27T21:35:34.820Z,96036.00
2018-07-27T21:38:04.935Z,96033.00
2018-07-27T21:40:34.996Z,96038.00
2018-07-27T21:43:05.216Z,96035.00
2018-07-27T21:45:35.701Z,96024.00
2018-07-27T21:48:06.033Z,96030.00
2018-07-27T21:50:36.084Z,96031.00
2018-07-27T21:53:05.942Z,96027.00
2018-07-27T21:55:35.937Z,96032.00
2018-07-27T21:58:06.165Z,96035.00
2018-07-27T22:00:36.275Z,96031.00
2018-07-27T22:03:06.489Z,96030.00
2018-07-27T22:05:36.564Z,96028.00
2018-07-27T22:08:06.680Z,96033.00
2018-07-27T22:10:36.792Z,96032.00
2018-07-27T22:13:06.945Z,96033.00
2018-07-27T22:15:37.019Z,96026.00
2018-07-27T22:47:14.517Z,96012.00
2018-07-27T22:53:05.477Z,96000.00
2018-07-27T22:55:40.728Z,95999.00
2018-07-27T23:30:24.018Z,95959.00
